sensor_id;sensor_type;location;lat;lon;timestamp;pressure;altitude;pressure_sealevel;temperature;humidity
75039;BME280;63609;49.992;14.512;2024-01-15T00:01:13;96441.31;;;-3.56;67.47
75039;BME280;63609;49.992;14.512;2024-01-15T00:03:40;96438.09;;;-3.59;67.66
75039;BME280;63609;49.992;14.512;2024-01-15T00:06:09;96428.72;;;-3.49;67.53
75039;BME280;63609;49.992;14.512;2024-01-15T00:08:36;96431.28;;;-3.23;67.21
75039;BME280;63609;49.992;14.512;2024-01-15T00:11:04;96410.78;;;-3.66;68.18
75039;BME280;63609;49.992;14.512;2024-01-15T00:13:31;96420.34;;;-3.29;66.56
75039;BME280;63609;49.992;14.512;2024-01-15T00:15:58;96422.78;;;-3.51;66.98
75039;BME280;63609;49.992;14.512;2024-01-15T00:18:25;96410.34;;;-3.60;67.34
75039;BME280;63609;49.992;14.512;2024-01-15T00:20:52;96414.63;;;-3.46;66.67
75039;BME280;63609;49.992;14.512;2024-01-15T00:23:19;96412.34;;;-3.51;66.95
75039;BME280;63609;49.992;14.512;2024-01-15T00:25:46;96387.81;;;-3.87;67.57
75039;BME280;63609;49.992;14.512;2024-01-15T00:28:13;96397.22;;;-3.71;67.21
75039;BME280;63609;49.992;14.512;2024-01-15T00:30:40;96392.94;;;-3.72;66.54
75039;BME280;63609;49.992;14.512;2024-01-15T00:33:07;96392.84;;;-3.71;67.21
75039;BME280;63609;49.992;14.512;2024-01-15T00:35:34;96385.31;;;-3.63;66.86
75039;BME280;63609;49.992;14.512;2024-01-15T00:38:01;96392.53;;;-3.79;67.05
75039;BME280;63609;49.992;14.512;2024-01-15T00:40:28;96379.81;;;-3.83;67.12
75039;BME280;63609;49.992;14.512;2024-01-15T00:42:55;96373.53;;;-4.06;67.87
75039;BME280;63609;49.992;14.512;2024-01-15T00:45:21;96379.47;;;-3.92;67.69
75039;BME280;63609;49.992;14.512;2024-01-15T00:47:48;96379.78;;;-4.09;67.89
75039;BME280;63609;49.992;14.512;2024-01-15T00:50:15;96381.25;;;-3.92;68.27
75039;BME280;63609;49.992;14.512;2024-01-15T00:52:43;96358.81;;;-3.95;67.88
75039;BME280;63609;49.992;14.512;2024-01-15T00:55:10;96368.63;;;-3.85;67.69
75039;BME280;63609;49.992;14.512;2024-01-15T00:57:37;96364.97;;;-3.70;67.06
75039;BME280;63609;49.992;14.512;2024-01-15T01:03:31;96334.22;;;-3.78;67.72
75039;BME280;63609;49.992;14.512;2024-01-15T01:06:01;96357.28;;;-3.72;66.94
75039;BME280;63609;49.992;14.512;2024-01-15T01:08:28;96356.84;;;-3.66;66.58
75039;BME280;63609;49.992;14.512;2024-01-15T01:10:55;96360.50;;;-3.94;67.30
75039;BME280;63609;49.992;14.512;2024-01-15T01:13:22;96356.13;;;-3.80;66.99
75039;BME280;63609;49.992;14.512;2024-01-15T01:15:49;96354.84;;;-3.88;67.19
75039;BME280;63609;49.992;14.512;2024-01-15T01:18:16;96362.88;;;-3.65;67.19
75039;BME280;63609;49.992;14.512;2024-01-15T01:20:43;96372.50;;;-4.04;67.70
75039;BME280;63609;49.992;14.512;2024-01-15T01:23:11;96352.88;;;-3.71;66.87
75039;BME280;63609;49.992;14.512;2024-01-15T01:25:38;96351.94;;;-3.96;66.64
75039;BME280;63609;49.992;14.512;2024-01-15T01:28:05;96352.81;;;-3.82;67.03
75039;BME280;63609;49.992;14.512;2024-01-15T01:30:32;96350.38;;;-3.85;67.10
75039;BME280;63609;49.992;14.512;2024-01-15T01:32:59;96339.56;;;-3.79;66.93
75039;BME280;63609;49.992;14.512;2024-01-15T01:35:27;96338.50;;;-3.90;66.82
75039;BME280;63609;49.992;14.512;2024-01-15T01:37:55;96350.09;;;-3.81;66.83
75039;BME280;63609;49.992;14.512;2024-01-15T01:40:21;96342.56;;;-3.85;66.73
75039;BME280;63609;49.992;14.512;2024-01-15T01:42:48;96331.72;;;-4.05;67.72
75039;BME280;63609;49.992;14.512;2024-01-15T01:45:16;96330.91;;;-4.05;67.51
75039;BME280;63609;49.992;14.512;2024-01-15T01:47:43;96328.28;;;-3.80;66.76
75039;BME280;63609;49.992;14.512;2024-01-15T01:50:11;96335.28;;;-3.80;66.66
75039;BME280;63609;49.992;14.512;2024-01-15T01:52:39;96313.78;;;-3.97;66.88
75039;BME280;63609;49.992;14.512;2024-01-15T01:55:11;96332.88;;;-4.09;66.92
75039;BME280;63609;49.992;14.512;2024-01-15T01:57:40;96319.00;;;-3.97;66.93
75039;BME280;63609;49.992;14.512;2024-01-15T02:00:11;96300.38;;;-4.16;67.08
75039;BME280;63609;49.992;14.512;2024-01-15T02:02:40;96297.00;;;-3.93;66.75
75039;BME280;63609;49.992;14.512;2024-01-15T02:05:08;96289.84;;;-4.14;67.55
75039;BME280;63609;49.992;14.512;2024-01-15T02:07:36;96291.28;;;-3.98;66.94
75039;BME280;63609;49.992;14.512;2024-01-15T02:10:03;96297.53;;;-4.00;67.22
75039;BME280;63609;49.992;14.512;2024-01-15T02:12:30;96296.28;;;-4.07;66.75
75039;BME280;63609;49.992;14.512;2024-01-15T02:14:57;96292.34;;;-4.13;66.60
75039;BME280;63609;49.992;14.512;2024-01-15T02:17:24;96296.38;;;-3.96;65.86
75039;BME280;63609;49.992;14.512;2024-01-15T02:19:51;96296.78;;;-3.90;65.26
75039;BME280;63609;49.992;14.512;2024-01-15T02:22:18;96292.09;;;-3.97;65.48
75039;BME280;63609;49.992;14.512;2024-01-15T02:24:45;96284.28;;;-3.84;64.75
75039;BME280;63609;49.992;14.512;2024-01-15T02:27:12;96292.31;;;-3.88;65.11
75039;BME280;63609;49.992;14.512;2024-01-15T02:29:39;96287.31;;;-3.91;65.33
75039;BME280;63609;49.992;14.512;2024-01-15T02:32:08;96292.84;;;-3.82;64.64
75039;BME280;63609;49.992;14.512;2024-01-15T02:34:35;96295.22;;;-3.92;65.06
75039;BME280;63609;49.992;14.512;2024-01-15T02:37:03;96292.81;;;-3.70;64.24
75039;BME280;63609;49.992;14.512;2024-01-15T02:39:31;96289.09;;;-4.04;64.41
75039;BME280;63609;49.992;14.512;2024-01-15T02:41:58;96285.63;;;-3.79;64.72
75039;BME280;63609;49.992;14.512;2024-01-15T02:44:31;96280.41;;;-3.92;64.74
75039;BME280;63609;49.992;14.512;2024-01-15T02:46:58;96280.88;;;-4.10;65.14
75039;BME280;63609;49.992;14.512;2024-01-15T02:49:25;96287.41;;;-3.79;64.35
75039;BME280;63609;49.992;14.512;2024-01-15T02:51:52;96291.91;;;-3.81;63.59
75039;BME280;63609;49.992;14.512;2024-01-15T02:54:19;96285.84;;;-3.95;64.47
75039;BME280;63609;49.992;14.512;2024-01-15T02:56:46;96256.97;;;-3.79;64.41
75039;BME280;63609;49.992;14.512;2024-01-15T02:59:13;96290.34;;;-3.84;64.57
75039;BME280;63609;49.992;14.512;2024-01-15T03:01:40;96286.41;;;-4.15;65.17
75039;BME280;63609;49.992;14.512;2024-01-15T03:04:07;96287.63;;;-3.95;64.97
75039;BME280;63609;49.992;14.512;2024-01-15T03:06:34;96307.97;;;-4.00;64.91
75039;BME280;63609;49.992;14.512;2024-01-15T03:09:01;96308.88;;;-3.76;63.80
75039;BME280;63609;49.992;14.512;2024-01-15T03:11:28;96310.53;;;-3.88;64.51
75039;BME280;63609;49.992;14.512;2024-01-15T03:13:54;96308.03;;;-3.89;64.32
75039;BME280;63609;49.992;14.512;2024-01-15T03:16:21;96297.72;;;-3.91;64.27
75039;BME280;63609;49.992;14.512;2024-01-15T03:18:48;96299.38;;;-3.90;64.81
75039;BME280;63609;49.992;14.512;2024-01-15T03:21:15;96299.09;;;-4.10;64.99
75039;BME280;63609;49.992;14.512;2024-01-15T03:23:43;96289.72;;;-4.00;64.74
75039;BME280;63609;49.992;14.512;2024-01-15T03:26:10;96291.28;;;-3.98;64.01
75039;BME280;63609;49.992;14.512;2024-01-15T03:28:37;96284.59;;;-3.89;64.34
75039;BME280;63609;49.992;14.512;2024-01-15T03:31:04;96280.41;;;-3.92;64.18
75039;BME280;63609;49.992;14.512;2024-01-15T03:33:31;96268.13;;;-4.02;64.29
75039;BME280;63609;49.992;14.512;2024-01-15T03:35:59;96268.25;;;-4.29;64.71
75039;BME280;63609;49.992;14.512;2024-01-15T03:38:28;96257.31;;;-4.22;64.65
75039;BME280;63609;49.992;14.512;2024-01-15T03:40:57;96255.75;;;-4.24;65.11
75039;BME280;63609;49.992;14.512;2024-01-15T03:43:24;96245.53;;;-4.27;64.55
75039;BME280;63609;49.992;14.512;2024-01-15T03:45:51;96232.63;;;-4.29;65.16
75039;BME280;63609;49.992;14.512;2024-01-15T03:48:18;96236.56;;;-4.10;64.63
75039;BME280;63609;49.992;14.512;2024-01-15T03:50:45;96240.53;;;-4.17;64.29
75039;BME280;63609;49.992;14.512;2024-01-15T03:53:12;96241.47;;;-4.19;64.46
75039;BME280;63609;49.992;14.512;2024-01-15T03:55:42;96244.81;;;-4.29;64.71
75039;BME280;63609;49.992;14.512;2024-01-15T03:58:09;96237.63;;;-4.38;64.54
75039;BME280;63609;49.992;14.512;2024-01-15T04:00:37;96242.19;;;-4.29;64.33
75039;BME280;63609;49.992;14.512;2024-01-15T04:03:04;96237.53;;;-4.49;65.15
75039;BME280;63609;49.992;14.512;2024-01-15T04:05:32;96230.53;;;-4.62;65.73
75039;BME280;63609;49.992;14.512;2024-01-15T04:07:59;96241.56;;;-4.33;64.96
75039;BME280;63609;49.992;14.512;2024-01-15T04:10:26;96233.56;;;-4.42;65.28
75039;BME280;63609;49.992;14.512;2024-01-15T04:12:54;96268.88;;;-4.38;65.55
75039;BME280;63609;49.992;14.512;2024-01-15T04:15:23;96295.25;;;-4.43;64.61
75039;BME280;63609;49.992;14.512;2024-01-15T04:17:51;96295.44;;;-4.33;65.37
75039;BME280;63609;49.992;14.512;2024-01-15T04:20:19;96290.19;;;-4.59;65.26
75039;BME280;63609;49.992;14.512;2024-01-15T04:22:49;96296.25;;;-4.58;65.52
75039;BME280;63609;49.992;14.512;2024-01-15T04:25:16;96288.00;;;-4.52;64.98
75039;BME280;63609;49.992;14.512;2024-01-15T04:27:42;96296.88;;;-4.55;65.75
75039;BME280;63609;49.992;14.512;2024-01-15T04:30:10;96268.44;;;-4.58;65.42
75039;BME280;63609;49.992;14.512;2024-01-15T04:32:37;96304.47;;;-4.52;65.80
75039;BME280;63609;49.992;14.512;2024-01-15T04:35:04;96308.31;;;-4.70;66.31
75039;BME280;63609;49.992;14.512;2024-01-15T04:37:33;96309.03;;;-4.68;65.68
75039;BME280;63609;49.992;14.512;2024-01-15T04:40:02;96307.75;;;-4.48;66.29
75039;BME280;63609;49.992;14.512;2024-01-15T04:42:30;96298.25;;;-4.49;65.33
75039;BME280;63609;49.992;14.512;2024-01-15T04:44:58;96289.72;;;-4.38;65.62
75039;BME280;63609;49.992;14.512;2024-01-15T04:47:25;96282.63;;;-4.36;65.20
75039;BME280;63609;49.992;14.512;2024-01-15T04:49:55;96275.31;;;-4.57;65.92
75039;BME280;63609;49.992;14.512;2024-01-15T04:52:22;96271.47;;;-4.51;65.55
75039;BME280;63609;49.992;14.512;2024-01-15T04:54:53;96256.50;;;-4.87;66.63
75039;BME280;63609;49.992;14.512;2024-01-15T04:57:21;96289.19;;;-4.43;65.24
75039;BME280;63609;49.992;14.512;2024-01-15T04:59:48;96293.00;;;-4.74;66.27
75039;BME280;63609;49.992;14.512;2024-01-15T05:02:14;96311.13;;;-4.73;66.09
75039;BME280;63609;49.992;14.512;2024-01-15T05:04:42;96308.22;;;-4.95;66.95
75039;BME280;63609;49.992;14.512;2024-01-15T05:07:09;96287.25;;;-4.79;66.58
75039;BME280;63609;49.992;14.512;2024-01-15T05:09:36;96270.66;;;-4.91;66.53
75039;BME280;63609;49.992;14.512;2024-01-15T05:12:03;96261.97;;;-4.77;66.42
75039;BME280;63609;49.992;14.512;2024-01-15T05:14:30;96254.31;;;-4.93;66.93
75039;BME280;63609;49.992;14.512;2024-01-15T05:16:57;96248.19;;;-4.92;66.92
75039;BME280;63609;49.992;14.512;2024-01-15T05:19:24;96250.09;;;-4.69;65.89
75039;BME280;63609;49.992;14.512;2024-01-15T05:21:51;96268.47;;;-4.97;67.24
75039;BME280;63609;49.992;14.512;2024-01-15T05:24:21;96269.84;;;-4.92;66.76
75039;BME280;63609;49.992;14.512;2024-01-15T05:26:48;96266.56;;;-5.08;67.58
75039;BME280;63609;49.992;14.512;2024-01-15T05:29:15;96282.63;;;-5.01;67.50
75039;BME280;63609;49.992;14.512;2024-01-15T05:31:42;96275.50;;;-5.12;67.24
75039;BME280;63609;49.992;14.512;2024-01-15T05:34:09;96282.63;;;-5.01;67.44
75039;BME280;63609;49.992;14.512;2024-01-15T05:36:36;96289.16;;;-4.69;66.86
75039;BME280;63609;49.992;14.512;2024-01-15T05:39:03;96292.69;;;-4.83;66.29
75039;BME280;63609;49.992;14.512;2024-01-15T05:41:30;96305.94;;;-5.00;67.19
75039;BME280;63609;49.992;14.512;2024-01-15T05:43:57;96317.84;;;-4.83;67.02
75039;BME280;63609;49.992;14.512;2024-01-15T05:46:24;96316.09;;;-5.09;67.27
75039;BME280;63609;49.992;14.512;2024-01-15T05:48:51;96318.22;;;-5.02;66.83
75039;BME280;63609;49.992;14.512;2024-01-15T05:51:18;96316.09;;;-5.09;67.37
75039;BME280;63609;49.992;14.512;2024-01-15T05:53:45;96316.94;;;-5.09;67.18
75039;BME280;63609;49.992;14.512;2024-01-15T05:56:12;96323.91;;;-5.09;67.50
75039;BME280;63609;49.992;14.512;2024-01-15T05:58:38;96316.84;;;-4.80;67.27
75039;BME280;63609;49.992;14.512;2024-01-15T06:01:05;96312.56;;;-5.08;67.16
75039;BME280;63609;49.992;14.512;2024-01-15T06:03:32;96317.19;;;-4.99;66.76
75039;BME280;63609;49.992;14.512;2024-01-15T06:05:59;96322.78;;;-4.78;66.90
75039;BME280;63609;49.992;14.512;2024-01-15T06:08:27;96328.84;;;-4.65;65.91
75039;BME280;63609;49.992;14.512;2024-01-15T06:10:56;96335.19;;;-4.57;65.48
75039;BME280;63609;49.992;14.512;2024-01-15T06:13:27;96325.59;;;-4.69;66.02
75039;BME280;63609;49.992;14.512;2024-01-15T06:15:54;96324.56;;;-4.66;66.36
75039;BME280;63609;49.992;14.512;2024-01-15T06:18:22;96318.19;;;-4.75;66.41
75039;BME280;63609;49.992;14.512;2024-01-15T06:20:49;96295.19;;;-4.81;66.15
75039;BME280;63609;49.992;14.512;2024-01-15T06:23:16;96315.34;;;-4.85;65.95
75039;BME280;63609;49.992;14.512;2024-01-15T06:25:47;96301.88;;;-5.04;66.66
75039;BME280;63609;49.992;14.512;2024-01-15T06:28:13;96303.75;;;-4.93;66.33
75039;BME280;63609;49.992;14.512;2024-01-15T06:30:40;96305.31;;;-4.91;66.19
75039;BME280;63609;49.992;14.512;2024-01-15T06:33:07;96306.22;;;-4.77;66.15
75039;BME280;63609;49.992;14.512;2024-01-15T06:35:34;96310.19;;;-4.99;66.47
75039;BME280;63609;49.992;14.512;2024-01-15T06:38:01;96298.97;;;-4.99;66.96
75039;BME280;63609;49.992;14.512;2024-01-15T06:40:28;96298.34;;;-5.17;67.52
75039;BME280;63609;49.992;14.512;2024-01-15T06:42:55;96315.91;;;-5.06;67.13
75039;BME280;63609;49.992;14.512;2024-01-15T06:45:22;96309.88;;;-5.07;66.81
75039;BME280;63609;49.992;14.512;2024-01-15T06:47:49;96315.09;;;-4.94;66.66
75039;BME280;63609;49.992;14.512;2024-01-15T06:50:16;96328.28;;;-5.10;67.04
75039;BME280;63609;49.992;14.512;2024-01-15T06:52:43;96335.06;;;-5.07;66.97
75039;BME280;63609;49.992;14.512;2024-01-15T06:55:10;96338.91;;;-5.27;67.44
75039;BME280;63609;49.992;14.512;2024-01-15T06:57:38;96333.91;;;-5.03;67.46
75039;BME280;63609;49.992;14.512;2024-01-15T07:00:06;96339.84;;;-5.01;67.27
75039;BME280;63609;49.992;14.512;2024-01-15T07:02:35;96361.13;;;-4.95;66.83
75039;BME280;63609;49.992;14.512;2024-01-15T07:05:01;96360.34;;;-5.09;67.54
75039;BME280;63609;49.992;14.512;2024-01-15T07:07:31;96362.94;;;-5.09;67.57
75039;BME280;63609;49.992;14.512;2024-01-15T07:09:58;96359.69;;;-5.13;67.79
75039;BME280;63609;49.992;14.512;2024-01-15T07:12:25;96379.22;;;-4.93;67.85
75039;BME280;63609;49.992;14.512;2024-01-15T07:14:51;96362.66;;;-5.19;68.33
75039;BME280;63609;49.992;14.512;2024-01-15T07:17:20;96362.75;;;-5.06;67.70
75039;BME280;63609;49.992;14.512;2024-01-15T07:19:47;96366.75;;;-4.88;67.54
75039;BME280;63609;49.992;14.512;2024-01-15T07:22:14;96377.50;;;-5.07;67.63
75039;BME280;63609;49.992;14.512;2024-01-15T07:24:44;96374.56;;;-4.88;67.11
75039;BME280;63609;49.992;14.512;2024-01-15T07:27:11;96382.16;;;-5.12;67.65
75039;BME280;63609;49.992;14.512;2024-01-15T07:29:38;96385.31;;;-5.07;67.83
75039;BME280;63609;49.992;14.512;2024-01-15T07:32:05;96381.00;;;-4.94;67.52
75039;BME280;63609;49.992;14.512;2024-01-15T07:34:34;96379.22;;;-4.93;67.20
75039;BME280;63609;49.992;14.512;2024-01-15T07:37:01;96378.06;;;-5.02;67.68
75039;BME280;63609;49.992;14.512;2024-01-15T07:39:28;96386.09;;;-4.92;67.98
75039;BME280;63609;49.992;14.512;2024-01-15T07:41:55;96395.09;;;-4.84;67.47
75039;BME280;63609;49.992;14.512;2024-01-15T07:44:22;96400.38;;;-4.85;66.69
75039;BME280;63609;49.992;14.512;2024-01-15T07:46:49;96390.78;;;-4.70;66.47
75039;BME280;63609;49.992;14.512;2024-01-15T07:49:16;96394.44;;;-4.60;66.53
75039;BME280;63609;49.992;14.512;2024-01-15T07:51:43;96385.88;;;-4.35;65.60
75039;BME280;63609;49.992;14.512;2024-01-15T07:54:10;96384.19;;;-4.49;65.76
75039;BME280;63609;49.992;14.512;2024-01-15T07:56:59;96387.06;;;-4.54;66.45
75039;BME280;63609;49.992;14.512;2024-01-15T07:59:27;96379.34;;;-4.55;66.34
75039;BME280;63609;49.992;14.512;2024-01-15T08:01:54;96383.59;;;-4.40;65.72
75039;BME280;63609;49.992;14.512;2024-01-15T08:04:21;96376.19;;;-4.46;66.14
75039;BME280;63609;49.992;14.512;2024-01-15T08:06:49;96373.06;;;-4.38;65.62
75039;BME280;63609;49.992;14.512;2024-01-15T08:09:16;96370.00;;;-4.05;63.87
75039;BME280;63609;49.992;14.512;2024-01-15T08:11:43;96363.28;;;-4.35;64.63
75039;BME280;63609;49.992;14.512;2024-01-15T08:14:11;96363.38;;;-4.24;65.32
75039;BME280;63609;49.992;14.512;2024-01-15T08:16:38;96365.72;;;-4.06;64.28
75039;BME280;63609;49.992;14.512;2024-01-15T08:19:05;96366.03;;;-4.11;64.69
75039;BME280;63609;49.992;14.512;2024-01-15T08:21:32;96362.91;;;-4.16;64.52
75039;BME280;63609;49.992;14.512;2024-01-15T08:24:00;96367.91;;;-4.13;65.04
75039;BME280;63609;49.992;14.512;2024-01-15T08:26:31;96372.91;;;-3.97;64.80
75039;BME280;63609;49.992;14.512;2024-01-15T08:28:59;96373.56;;;-3.81;63.67
75039;BME280;63609;49.992;14.512;2024-01-15T08:31:26;96379.72;;;-3.82;64.01
75039;BME280;63609;49.992;14.512;2024-01-15T08:33:54;96373.63;;;-4.08;64.31
75039;BME280;63609;49.992;14.512;2024-01-15T08:36:22;96378.44;;;-4.02;64.51
75039;BME280;63609;49.992;14.512;2024-01-15T08:38:50;96364.75;;;-4.18;64.44
75039;BME280;63609;49.992;14.512;2024-01-15T08:41:18;96384.59;;;-3.77;63.96
75039;BME280;63609;49.992;14.512;2024-01-15T08:43:45;96387.91;;;-4.01;64.36
75039;BME280;63609;49.992;14.512;2024-01-15T08:46:12;96377.50;;;-3.88;64.01
75039;BME280;63609;49.992;14.512;2024-01-15T08:48:39;96394.16;;;-3.91;63.47
75039;BME280;63609;49.992;14.512;2024-01-15T08:51:06;96370.88;;;-4.19;64.26
75039;BME280;63609;49.992;14.512;2024-01-15T08:53:35;96366.13;;;-4.00;63.18
75039;BME280;63609;49.992;14.512;2024-01-15T08:56:02;96364.06;;;-3.82;62.83
75039;BME280;63609;49.992;14.512;2024-01-15T08:58:28;96356.09;;;-3.55;61.43
75039;BME280;63609;49.992;14.512;2024-01-15T09:00:55;96348.44;;;-3.20;60.68
75039;BME280;63609;49.992;14.512;2024-01-15T09:03:23;96366.53;;;-3.42;60.41
75039;BME280;63609;49.992;14.512;2024-01-15T09:05:50;96360.47;;;-3.43;60.70
75039;BME280;63609;49.992;14.512;2024-01-15T09:08:18;96359.31;;;-3.02;59.82
75039;BME280;63609;49.992;14.512;2024-01-15T09:10:45;96353.56;;;-3.31;59.69
75039;BME280;63609;49.992;14.512;2024-01-15T09:13:13;96359.06;;;-3.23;60.06
75039;BME280;63609;49.992;14.512;2024-01-15T09:15:39;96349.81;;;-3.40;60.24
75039;BME280;63609;49.992;14.512;2024-01-15T09:18:06;96345.00;;;-3.33;60.35
75039;BME280;63609;49.992;14.512;2024-01-15T09:20:35;96344.66;;;-3.16;59.87
75039;BME280;63609;49.992;14.512;2024-01-15T09:23:02;96346.81;;;-3.46;60.81
75039;BME280;63609;49.992;14.512;2024-01-15T09:25:29;96360.53;;;-2.95;59.46
75039;BME280;63609;49.992;14.512;2024-01-15T09:27:56;96352.88;;;-3.59;60.96
75039;BME280;63609;49.992;14.512;2024-01-15T09:30:24;96354.50;;;-3.32;59.97
75039;BME280;63609;49.992;14.512;2024-01-15T09:32:51;96349.81;;;-3.40;60.61
75039;BME280;63609;49.992;14.512;2024-01-15T09:35:18;96354.03;;;-3.75;61.33
75039;BME280;63609;49.992;14.512;2024-01-15T09:37:47;96349.31;;;-3.58;60.14
75039;BME280;63609;49.992;14.512;2024-01-15T09:40:15;96344.22;;;-3.46;59.73
75039;BME280;63609;49.992;14.512;2024-01-15T09:42:43;96349.09;;;-3.42;59.55
75039;BME280;63609;49.992;14.512;2024-01-15T09:45:11;96345.91;;;-3.21;59.03
75039;BME280;63609;49.992;14.512;2024-01-15T09:47:38;96319.69;;;-3.44;60.47
75039;BME280;63609;49.992;14.512;2024-01-15T09:50:10;96321.47;;;-3.20;58.71
75039;BME280;63609;49.992;14.512;2024-01-15T09:52:38;96318.84;;;-3.57;60.19
75039;BME280;63609;49.992;14.512;2024-01-15T09:55:08;96322.84;;;-3.28;58.93
75039;BME280;63609;49.992;14.512;2024-01-15T09:57:36;96321.06;;;-3.51;60.24
75039;BME280;63609;49.992;14.512;2024-01-15T10:00:04;96332.41;;;-3.39;59.21
75039;BME280;63609;49.992;14.512;2024-01-15T10:02:35;96309.34;;;-3.58;59.94
75039;BME280;63609;49.992;14.512;2024-01-15T10:05:04;96317.56;;;-3.39;59.47
75039;BME280;63609;49.992;14.512;2024-01-15T10:07:35;96314.28;;;-2.69;58.41
75039;BME280;63609;49.992;14.512;2024-01-15T10:10:02;96310.41;;;-2.87;58.68
75039;BME280;63609;49.992;14.512;2024-01-15T10:12:30;96315.34;;;-3.19;58.49
75039;BME280;63609;49.992;14.512;2024-01-15T10:14:57;96310.97;;;-3.32;58.88
75039;BME280;63609;49.992;14.512;2024-01-15T10:17:24;96305.91;;;-3.09;58.85
75039;BME280;63609;49.992;14.512;2024-01-15T10:19:54;96300.44;;;-3.06;58.20
75039;BME280;63609;49.992;14.512;2024-01-15T10:22:22;96295.81;;;-3.27;58.44
75039;BME280;63609;49.992;14.512;2024-01-15T10:24:51;96296.22;;;-2.96;58.21
75039;BME280;63609;49.992;14.512;2024-01-15T10:27:18;96300.56;;;-3.08;58.59
75039;BME280;63609;49.992;14.512;2024-01-15T10:29:47;96289.88;;;-3.29;58.68
75039;BME280;63609;49.992;14.512;2024-01-15T10:32:14;96292.06;;;-2.99;58.57
75039;BME280;63609;49.992;14.512;2024-01-15T10:34:41;96297.25;;;-2.51;57.21
75039;BME280;63609;49.992;14.512;2024-01-15T10:37:11;96310.84;;;-3.17;57.84
75039;BME280;63609;49.992;14.512;2024-01-15T10:39:37;96287.69;;;-2.63;57.65
75039;BME280;63609;49.992;14.512;2024-01-15T10:42:05;96296.84;;;-2.57;57.13
75039;BME280;63609;49.992;14.512;2024-01-15T10:44:35;96288.03;;;-2.68;57.09
75039;BME280;63609;49.992;14.512;2024-01-15T10:47:02;96263.34;;;-2.99;57.33
75039;BME280;63609;49.992;14.512;2024-01-15T10:49:29;96288.63;;;-2.64;57.24
75039;BME280;63609;49.992;14.512;2024-01-15T10:52:03;96282.06;;;-2.46;56.80
75039;BME280;63609;49.992;14.512;2024-01-15T10:54:31;96288.03;;;-2.68;56.86
75039;BME280;63609;49.992;14.512;2024-01-15T10:56:58;96286.91;;;-2.52;56.86
75039;BME280;63609;49.992;14.512;2024-01-15T10:59:26;96286.84;;;-2.64;57.29
75039;BME280;63609;49.992;14.512;2024-01-15T11:01:53;96279.78;;;-2.50;56.83
75039;BME280;63609;49.992;14.512;2024-01-15T11:04:22;96268.44;;;-2.73;56.74
75039;BME280;63609;49.992;14.512;2024-01-15T11:06:53;96290.63;;;-2.79;57.04
75039;BME280;63609;49.992;14.512;2024-01-15T11:09:23;96282.38;;;-2.15;56.26
75039;BME280;63609;49.992;14.512;2024-01-15T11:12:06;96280.00;;;-2.18;56.04
75039;BME280;63609;49.992;14.512;2024-01-15T11:15:01;96294.34;;;-2.59;57.05
75039;BME280;63609;49.992;14.512;2024-01-15T11:17:58;96283.97;;;-2.48;55.90
75039;BME280;63609;49.992;14.512;2024-01-15T11:20:27;96274.13;;;-2.33;56.28
75039;BME280;63609;49.992;14.512;2024-01-15T11:22:54;96284.31;;;-2.41;56.92
75039;BME280;63609;49.992;14.512;2024-01-15T11:25:34;96282.56;;;-2.29;56.07
75039;BME280;63609;49.992;14.512;2024-01-15T11:28:03;96275.63;;;-2.53;56.43
75039;BME280;63609;49.992;14.512;2024-01-15T11:30:31;96275.53;;;-2.51;56.17
75039;BME280;63609;49.992;14.512;2024-01-15T11:32:58;96273.88;;;-2.41;56.33
75039;BME280;63609;49.992;14.512;2024-01-15T11:35:47;96285.16;;;-2.41;56.60
75039;BME280;63609;49.992;14.512;2024-01-15T11:38:26;96286.16;;;-2.66;56.66
75039;BME280;63609;49.992;14.512;2024-01-15T11:40:58;96280.59;;;-2.15;55.86
75039;BME280;63609;49.992;14.512;2024-01-15T11:43:26;96286.41;;;-2.22;56.03
75039;BME280;63609;49.992;14.512;2024-01-15T11:45:54;96277.59;;;-2.21;55.45
75039;BME280;63609;49.992;14.512;2024-01-15T11:48:21;96273.22;;;-2.10;56.54
75039;BME280;63609;49.992;14.512;2024-01-15T11:50:50;96266.19;;;-2.20;55.95
75039;BME280;63609;49.992;14.512;2024-01-15T11:55:58;96273.88;;;-2.41;56.28
75039;BME280;63609;49.992;14.512;2024-01-15T11:58:26;96279.28;;;-2.55;57.24
75039;BME280;63609;49.992;14.512;2024-01-15T12:00:52;96270.78;;;-2.35;56.32
75039;BME280;63609;49.992;14.512;2024-01-15T12:03:22;96258.28;;;-2.54;56.83
75039;BME280;63609;49.992;14.512;2024-01-15T12:05:52;96272.19;;;-2.53;56.94
75039;BME280;63609;49.992;14.512;2024-01-15T12:08:22;96264.13;;;-2.39;56.62
75039;BME280;63609;49.992;14.512;2024-01-15T12:10:50;96260.75;;;-2.64;56.78
75039;BME280;63609;49.992;14.512;2024-01-15T12:13:18;96258.97;;;-2.63;57.28
75039;BME280;63609;49.992;14.512;2024-01-15T12:15:47;96275.34;;;-2.61;56.37
75039;BME280;63609;49.992;14.512;2024-01-15T12:18:17;96259.97;;;-2.53;57.20
75039;BME280;63609;49.992;14.512;2024-01-15T12:20:47;96253.19;;;-2.44;56.77
75039;BME280;63609;49.992;14.512;2024-01-15T12:23:15;96255.97;;;-2.12;55.99
75039;BME280;63609;49.992;14.512;2024-01-15T12:25:45;96255.16;;;-2.70;56.96
75039;BME280;63609;49.992;14.512;2024-01-15T12:28:12;96254.53;;;-2.85;57.21
75039;BME280;63609;49.992;14.512;2024-01-15T12:30:39;96240.91;;;-2.66;57.30
75039;BME280;63609;49.992;14.512;2024-01-15T12:33:07;96250.72;;;-2.81;57.33
75039;BME280;63609;49.992;14.512;2024-01-15T12:35:36;96243.78;;;-2.58;56.53
75039;BME280;63609;49.992;14.512;2024-01-15T12:38:03;96249.28;;;-2.85;57.85
75039;BME280;63609;49.992;14.512;2024-01-15T12:40:32;96252.13;;;-2.53;56.67
75039;BME280;63609;49.992;14.512;2024-01-15T12:43:00;96241.63;;;-2.64;56.96
75039;BME280;63609;49.992;14.512;2024-01-15T12:45:27;96254.94;;;-2.56;56.63
75039;BME280;63609;49.992;14.512;2024-01-15T12:47:55;96242.41;;;-2.40;55.78
75039;BME280;63609;49.992;14.512;2024-01-15T12:50:24;96242.88;;;-2.35;55.58
75039;BME280;63609;49.992;14.512;2024-01-15T12:52:53;96247.03;;;-2.43;56.12
75039;BME280;63609;49.992;14.512;2024-01-15T12:55:20;96247.31;;;-2.13;55.54
75039;BME280;63609;49.992;14.512;2024-01-15T12:57:47;96265.09;;;-2.40;56.33
75039;BME280;63609;49.992;14.512;2024-01-15T13:00:15;96261.50;;;-2.50;56.00